createdAt,value
2017-01-06T00:00:12.186Z,-1.99
2017-01-06T00:01:22.133Z,-2.09
2017-01-06T00:02:32.874Z,-2.05
2017-01-06T00:03:43.217Z,-2.09
2017-01-06T00:04:53.975Z,-2.05
2017-01-06T00:06:04.710Z,-2.06
2017-01-06T00:07:15.067Z,-2.09
2017-01-06T00:08:25.824Z,-2.14
2017-01-06T00:09:36.554Z,-2.1
2017-01-06T00:10:47.286Z,-2.1
2017-01-06T00:11:57.625Z,-2.07
2017-01-06T00:13:07.967Z,-2.12
2017-01-06T00:14:17.522Z,-2.1
2017-01-06T00:15:28.282Z,-2.05
2017-01-06T00:16:38.617Z,-2.02
2017-01-06T00:17:49.000Z,-2
2017-01-06T00:18:59.726Z,-2.1
2017-01-06T00:20:10.097Z,-2.14
2017-01-06T00:21:20.823Z,-2.12
2017-01-06T00:22:31.171Z,-2.1
2017-01-06T00:23:41.898Z,-2.06
2017-01-06T00:24:52.264Z,-2.02
2017-01-06T00:26:03.035Z,-2.03
2017-01-06T00:27:13.766Z,-2.05
2017-01-06T00:28:24.111Z,-2.09
2017-01-06T00:29:34.842Z,-2.06
2017-01-06T00:30:45.581Z,-2.06
2017-01-06T00:31:56.309Z,-2
2017-01-06T00:33:06.647Z,-2
2017-01-06T00:34:16.988Z,-2.02
2017-01-06T00:35:27.328Z,-2.1
2017-01-06T00:36:38.055Z,-2.03
2017-01-06T00:37:48.772Z,-2.1
2017-01-06T00:38:59.129Z,-2.1
2017-01-06T00:40:09.521Z,-2.12
2017-01-06T00:41:19.857Z,-2.15
2017-01-06T00:42:30.616Z,-2
2017-01-06T00:43:40.961Z,-2.18
2017-01-06T00:44:51.697Z,-2.07
2017-01-06T00:46:01.643Z,-2.06
2017-01-06T00:47:12.385Z,-2.06
2017-01-06T00:48:22.747Z,-2.07
2017-01-06T00:49:33.478Z,-2.15
2017-01-06T00:50:43.850Z,-2.09
2017-01-06T00:51:54.195Z,-2.17
2017-01-06T00:53:04.543Z,-2.07
2017-01-06T00:54:15.288Z,-2.15
2017-01-06T00:55:26.017Z,-2.17
2017-01-06T00:56:36.371Z,-2.1
2017-01-06T00:57:46.703Z,-2.15
2017-01-06T00:58:56.652Z,-2.14
2017-01-06T01:00:06.999Z,-2.07
2017-01-06T01:01:17.376Z,-2.12
2017-01-06T01:02:27.718Z,-2.07
2017-01-06T01:03:38.060Z,-2.2
2017-01-06T01:04:48.789Z,-2.12
2017-01-06T01:05:59.527Z,-2.06
2017-01-06T01:07:10.261Z,-2.14
2017-01-06T01:08:20.998Z,-2.14
2017-01-06T01:09:31.739Z,-2.17
2017-01-06T01:10:42.479Z,-2.18
2017-01-06T01:11:53.233Z,-2.25
2017-01-06T01:13:03.577Z,-2.2
2017-01-06T01:14:13.509Z,-2.2
2017-01-06T01:15:23.466Z,-2.24
2017-01-06T01:16:34.202Z,-2.14
2017-01-06T01:17:44.555Z,-2.23
2017-01-06T01:18:55.551Z,-2.23
2017-01-06T01:20:05.893Z,-2.24
2017-01-06T01:21:15.840Z,-2.27
2017-01-06T01:22:26.576Z,-2.23
2017-01-06T01:23:36.519Z,-2.25
2017-01-06T01:24:46.874Z,-2.28
2017-01-06T01:25:57.217Z,-2.34
2017-01-06T01:27:07.569Z,-2.32
2017-01-06T01:28:18.300Z,-2.34
2017-01-06T01:29:29.032Z,-2.34
2017-01-06T01:30:39.758Z,-2.34
2017-01-06T01:31:50.100Z,-2.32
2017-01-06T01:33:00.451Z,-2.34
2017-01-06T01:34:10.783Z,-2.34
2017-01-06T01:35:21.523Z,-2.36
2017-01-06T01:36:31.472Z,-2.32
2017-01-06T01:37:41.823Z,-2.28
2017-01-06T01:38:52.565Z,-2.37
2017-01-06T01:40:03.351Z,-2.44
2017-01-06T01:41:13.695Z,-2.44
2017-01-06T01:42:24.430Z,-2.43
2017-01-06T01:43:35.193Z,-2.39
2017-01-06T01:44:45.543Z,-2.42
2017-01-06T01:45:56.275Z,-2.43
2017-01-06T01:47:05.826Z,-2.36
2017-01-06T01:48:16.165Z,-2.39
2017-01-06T01:49:26.935Z,-2.39
2017-01-06T01:50:37.669Z,-2.44
2017-01-06T01:51:47.214Z,-2.44
2017-01-06T01:52:57.940Z,-2.44
2017-01-06T01:54:08.672Z,-2.43
2017-01-06T01:55:19.256Z,-2.46
2017-01-06T01:56:29.991Z,-2.44
2017-01-06T01:57:40.394Z,-2.49
2017-01-06T01:58:50.788Z,-2.5
2017-01-06T02:00:01.518Z,-2.46
2017-01-06T02:01:11.463Z,-2.54
2017-01-06T02:02:21.405Z,-2.44
2017-01-06T02:03:32.146Z,-2.53
2017-01-06T02:04:42.483Z,-2.5
2017-01-06T02:05:52.820Z,-2.54
2017-01-06T02:07:03.162Z,-2.49
2017-01-06T02:08:13.499Z,-2.46
2017-01-06T02:09:24.231Z,-2.5
2017-01-06T02:10:34.972Z,-2.49
2017-01-06T02:11:44.919Z,-2.58
2017-01-06T02:12:55.655Z,-2.49
2017-01-06T02:14:05.995Z,-2.49
2017-01-06T02:15:15.613Z,-2.49
2017-01-06T02:16:25.554Z,-2.55
2017-01-06T02:17:35.897Z,-2.57
2017-01-06T02:18:46.230Z,-2.5
2017-01-06T02:19:56.171Z,-2.57
2017-01-06T02:21:06.893Z,-2.62
2017-01-06T02:22:17.232Z,-2.54
2017-01-06T02:23:27.595Z,-2.62
2017-01-06T02:24:37.544Z,-2.61
2017-01-06T02:25:47.893Z,-2.64
2017-01-06T02:26:58.619Z,-2.57
2017-01-06T02:28:08.960Z,-2.55
2017-01-06T02:29:19.312Z,-2.53
2017-01-06T02:30:29.669Z,-2.55
2017-01-06T02:31:40.008Z,-2.6
2017-01-06T02:32:50.337Z,-2.6
2017-01-06T02:34:00.679Z,-2.58
2017-01-06T02:35:11.421Z,-2.5
2017-01-06T02:36:20.974Z,-2.54
2017-01-06T02:37:31.306Z,-2.58
2017-01-06T02:38:41.641Z,-2.62
2017-01-06T02:39:52.380Z,-2.55
2017-01-06T02:41:03.119Z,-2.58
2017-01-06T02:42:13.893Z,-2.55
2017-01-06T02:43:24.612Z,-2.47
2017-01-06T02:44:34.940Z,-2.49
2017-01-06T02:45:44.496Z,-2.44
2017-01-06T02:46:55.237Z,-2.54
2017-01-06T02:48:04.775Z,-2.47
2017-01-06T02:49:15.121Z,-2.47
2017-01-06T02:50:25.852Z,-2.46
2017-01-06T02:51:36.579Z,-2.44
2017-01-06T02:52:46.517Z,-2.47
2017-01-06T02:53:56.848Z,-2.44
2017-01-06T02:55:07.194Z,-2.54
2017-01-06T02:56:16.747Z,-2.5
2017-01-06T02:57:27.085Z,-2.44
2017-01-06T02:58:37.424Z,-2.47
2017-01-06T02:59:48.150Z,-2.46
2017-01-06T03:00:58.091Z,-2.44
2017-01-06T03:32:49.602Z,-4.62
2017-01-06T03:33:59.924Z,-4.63
2017-01-06T03:35:09.857Z,-4.59
2017-01-06T03:36:20.219Z,-4.47
2017-01-06T03:37:30.944Z,-4.43
2017-01-06T03:38:41.687Z,-4.32
2017-01-06T03:39:51.628Z,-4.15
2017-01-06T03:41:01.965Z,-3.93
2017-01-06T03:42:12.697Z,-3.77
2017-01-06T03:43:23.450Z,-3.63
2017-01-06T03:44:33.780Z,-3.33
2017-01-06T03:45:44.502Z,-3.19
2017-01-06T03:46:55.258Z,-3
2017-01-06T03:48:05.604Z,-2.85
2017-01-06T03:49:15.938Z,-2.78
2017-01-06T03:50:25.891Z,-2.61
2017-01-06T03:51:36.632Z,-2.58
2017-01-06T03:52:47.373Z,-2.43
2017-01-06T03:53:58.139Z,-2.39
2017-01-06T03:55:08.874Z,-2.27
2017-01-06T03:56:19.620Z,-2.25
2017-01-06T03:57:30.379Z,-2.14
2017-01-06T03:58:40.736Z,-2.2
2017-01-06T03:59:51.472Z,-2.18
2017-01-06T04:01:01.411Z,-2.05
2017-01-06T04:02:12.152Z,-2.05
2017-01-06T04:03:22.498Z,-1.97
2017-01-06T04:04:32.821Z,-2
2017-01-06T04:05:42.753Z,-1.91
2017-01-06T04:06:53.104Z,-1.97
2017-01-06T04:08:03.041Z,-1.91
2017-01-06T04:09:12.988Z,-1.88
2017-01-06T04:10:23.764Z,-1.97
2017-01-06T04:11:34.096Z,-1.81
2017-01-06T04:12:44.831Z,-1.81
2017-01-06T04:13:55.569Z,-1.73
2017-01-06T04:15:05.525Z,-1.79
2017-01-06T04:16:15.469Z,-1.81
2017-01-06T04:17:26.199Z,-1.79
2017-01-06T04:18:36.536Z,-1.79
2017-01-06T04:19:46.492Z,-1.82
2017-01-06T04:20:57.219Z,-1.79
2017-01-06T04:22:07.962Z,-1.68
2017-01-06T04:23:17.933Z,-1.81
2017-01-06T04:24:28.274Z,-1.76
2017-01-06T04:25:37.821Z,-1.74
2017-01-06T04:26:48.159Z,-1.74
2017-01-06T04:27:58.896Z,-1.68
2017-01-06T04:29:08.452Z,-1.73
2017-01-06T04:30:18.798Z,-1.71
2017-01-06T04:31:29.135Z,-1.74
2017-01-06T04:32:39.494Z,-1.78
2017-01-06T04:33:50.226Z,-1.78
2017-01-06T04:35:00.961Z,-1.74
2017-01-06T04:36:11.307Z,-1.74
2017-01-06T04:37:22.044Z,-1.74
2017-01-06T04:38:32.771Z,-1.79
2017-01-06T04:39:43.528Z,-1.86
2017-01-06T04:40:53.891Z,-1.76
2017-01-06T04:42:04.228Z,-1.85
2017-01-06T04:43:14.958Z,-1.81
2017-01-06T04:44:25.300Z,-1.85
2017-01-06T04:45:36.038Z,-1.86
2017-01-06T04:46:46.773Z,-1.84
2017-01-06T04:47:56.716Z,-1.74
2017-01-06T04:49:07.042Z,-1.82
2017-01-06T04:50:17.773Z,-1.88
2017-01-06T04:51:27.714Z,-1.84
2017-01-06T04:52:38.052Z,-1.78
2017-01-06T04:53:47.995Z,-1.76
2017-01-06T04:54:58.331Z,-1.73
2017-01-06T04:56:09.061Z,-1.73
2017-01-06T04:57:19.013Z,-1.74
2017-01-06T04:58:29.754Z,-1.76
2017-01-06T04:59:39.692Z,-1.73
2017-01-06T05:00:50.422Z,-1.81
2017-01-06T05:02:01.150Z,-1.76
2017-01-06T05:03:11.495Z,-1.79
2017-01-06T05:04:21.439Z,-1.78
2017-01-06T05:05:31.784Z,-1.7
2017-01-06T05:06:42.120Z,-1.73
2017-01-06T05:07:52.443Z,-1.73
2017-01-06T05:09:02.397Z,-1.73
2017-01-06T05:10:12.761Z,-1.82
2017-01-06T05:11:23.526Z,-1.71
2017-01-06T05:12:34.269Z,-1.76
2017-01-06T05:13:44.218Z,-1.7
2017-01-06T05:14:54.958Z,-1.7
2017-01-06T05:16:05.293Z,-1.74
2017-01-06T05:17:16.031Z,-1.71
2017-01-06T05:18:26.357Z,-1.61
2017-01-06T05:19:37.091Z,-1.64
2017-01-06T05:20:47.826Z,-1.79
2017-01-06T05:21:57.774Z,-1.71
2017-01-06T05:23:07.734Z,-1.73
2017-01-06T05:24:18.492Z,-1.66
2017-01-06T05:25:28.833Z,-1.56
2017-01-06T05:26:39.165Z,-1.6
2017-01-06T05:27:49.127Z,-1.55
2017-01-06T05:28:59.871Z,-1.61
2017-01-06T05:30:10.624Z,-1.6
2017-01-06T05:31:21.357Z,-1.52
2017-01-06T05:32:32.115Z,-1.58
2017-01-06T05:33:42.852Z,-1.52
2017-01-06T05:34:53.188Z,-1.55
2017-01-06T05:36:03.150Z,-1.61
2017-01-06T05:37:13.092Z,-1.49
2017-01-06T05:38:23.454Z,-1.46
2017-01-06T05:39:34.185Z,-1.49
2017-01-06T05:40:44.541Z,-1.48
2017-01-06T05:41:55.292Z,-1.53
2017-01-06T05:43:05.234Z,-1.52
2017-01-06T05:44:15.181Z,-1.61
2017-01-06T05:45:25.935Z,-1.58
2017-01-06T05:46:36.664Z,-1.5
2017-01-06T05:47:47.002Z,-1.48
2017-01-06T05:48:57.343Z,-1.49
2017-01-06T05:50:07.680Z,-1.55
2017-01-06T05:51:18.013Z,-1.53
2017-01-06T05:52:28.763Z,-1.58
2017-01-06T05:53:39.491Z,-1.5
2017-01-06T05:54:50.228Z,-1.53
2017-01-06T05:56:00.567Z,-1.52
2017-01-06T05:57:10.517Z,-1.56
2017-01-06T05:58:21.248Z,-1.55
2017-01-06T05:59:31.190Z,-1.58
2017-01-06T06:00:41.150Z,-1.56
2017-01-06T06:01:51.483Z,-1.53
2017-01-06T06:03:01.813Z,-1.6
2017-01-06T06:04:12.158Z,-1.56
2017-01-06T06:05:22.108Z,-1.52
2017-01-06T06:06:32.444Z,-1.55
2017-01-06T06:07:43.188Z,-1.53
2017-01-06T06:08:53.518Z,-1.6
2017-01-06T06:10:04.254Z,-1.56
2017-01-06T06:11:14.978Z,-1.6
2017-01-06T06:12:25.323Z,-1.53
2017-01-06T06:13:34.870Z,-1.58
2017-01-06T06:14:45.203Z,-1.61
2017-01-06T06:15:55.179Z,-1.6
2017-01-06T06:17:05.916Z,-1.64
2017-01-06T06:18:15.470Z,-1.68
2017-01-06T06:19:26.207Z,-1.53
2017-01-06T06:20:36.539Z,-1.56
2017-01-06T06:21:47.316Z,-1.64
2017-01-06T06:22:58.068Z,-1.64
2017-01-06T06:24:08.398Z,-1.64
2017-01-06T06:25:18.751Z,-1.64
2017-01-06T06:26:29.483Z,-1.6
2017-01-06T06:27:40.208Z,-1.68
2017-01-06T06:28:50.562Z,-1.73
2017-01-06T06:30:01.297Z,-1.76
2017-01-06T06:31:12.040Z,-1.66
2017-01-06T06:32:22.381Z,-1.78
2017-01-06T06:33:33.113Z,-1.74
2017-01-06T06:34:42.664Z,-1.81
2017-01-06T06:35:52.999Z,-1.76
2017-01-06T06:37:03.732Z,-1.74
2017-01-06T06:38:14.468Z,-1.67
2017-01-06T06:39:25.201Z,-1.74
2017-01-06T06:40:35.545Z,-1.71
2017-01-06T06:41:45.897Z,-1.79
2017-01-06T06:42:55.847Z,-1.71
2017-01-06T06:44:06.583Z,-1.68
2017-01-06T06:45:16.919Z,-1.67
2017-01-06T06:46:27.246Z,-1.73
2017-01-06T06:47:37.587Z,-1.76
2017-01-06T06:48:47.960Z,-1.85
2017-01-06T06:49:58.707Z,-1.81
2017-01-06T06:51:09.452Z,-1.82
2017-01-06T06:52:19.806Z,-1.84
2017-01-06T06:53:30.546Z,-1.88
2017-01-06T06:54:40.101Z,-1.84
2017-01-06T06:55:50.843Z,-1.81
2017-01-06T06:57:01.575Z,-1.76
2017-01-06T06:58:11.529Z,-1.86
2017-01-06T06:59:21.508Z,-1.86
2017-01-06T07:00:32.237Z,-1.86
2017-01-06T07:01:42.610Z,-1.85
2017-01-06T07:02:53.368Z,-1.89
2017-01-06T07:04:04.096Z,-1.99
2017-01-06T07:05:14.831Z,-1.89
2017-01-06T07:06:25.578Z,-1.99
2017-01-06T07:07:36.325Z,-1.96
2017-01-06T07:08:47.060Z,-1.97
2017-01-06T07:09:57.463Z,-2.02
2017-01-06T07:11:08.201Z,-1.91
2017-01-06T07:12:18.552Z,-1.97
2017-01-06T07:13:28.895Z,-1.94
2017-01-06T07:14:39.630Z,-1.97
2017-01-06T07:15:50.007Z,-1.99
2017-01-06T07:17:00.753Z,-2
2017-01-06T07:18:11.493Z,-1.86
2017-01-06T07:19:21.826Z,-1.81
2017-01-06T07:20:32.560Z,-1.84
2017-01-06T07:21:43.306Z,-1.78
2017-01-06T07:22:53.665Z,-1.74
2017-01-06T07:24:03.993Z,-1.67
2017-01-06T07:25:14.330Z,-1.71
2017-01-06T07:26:25.081Z,-1.81
2017-01-06T07:27:35.428Z,-1.73
2017-01-06T07:28:45.779Z,-1.76
2017-01-06T07:29:56.507Z,-1.67
2017-01-06T07:31:06.863Z,-1.76
2017-01-06T07:32:17.201Z,-1.68
2017-01-06T07:33:27.558Z,-1.67
2017-01-06T07:34:37.898Z,-1.66
2017-01-06T07:35:48.229Z,-1.63
2017-01-06T07:36:58.578Z,-1.71
2017-01-06T07:38:09.329Z,-1.7
2017-01-06T07:39:19.663Z,-1.64
2017-01-06T07:40:29.613Z,-1.61
2017-01-06T07:41:39.558Z,-1.52
2017-01-06T07:42:50.285Z,-1.56
2017-01-06T07:44:00.232Z,-1.63
2017-01-06T07:45:10.963Z,-1.52
2017-01-06T07:46:20.905Z,-1.46
2017-01-06T07:47:31.247Z,-1.31
2017-01-06T07:48:41.988Z,-1.32
2017-01-06T07:49:52.321Z,-1.27
2017-01-06T07:51:03.061Z,-1.3
2017-01-06T07:52:13.808Z,-1.24
2017-01-06T07:53:24.541Z,-1.09
2017-01-06T07:54:35.278Z,-1.11
2017-01-06T07:55:46.005Z,-1.03
2017-01-06T07:56:56.345Z,-0.98
2017-01-06T07:58:07.073Z,-0.87
2017-01-06T07:59:17.808Z,-0.82
2017-01-06T08:00:28.551Z,-0.64
2017-01-06T08:01:38.497Z,-0.67
2017-01-06T08:02:49.214Z,-0.48
2017-01-06T08:03:59.551Z,-0.37
2017-01-06T08:05:10.318Z,-0.23
2017-01-06T08:06:21.059Z,-0.25
2017-01-06T08:07:31.800Z,-0.16
2017-01-06T08:08:42.133Z,-0.19
2017-01-06T08:09:52.074Z,-0.22
2017-01-06T08:11:02.011Z,-0.22
2017-01-06T08:12:11.959Z,-0.36
2017-01-06T08:13:21.510Z,-0.34
2017-01-06T08:14:31.847Z,-0.19
2017-01-06T08:15:41.792Z,-0.25
2017-01-06T08:16:52.524Z,-0.25
2017-01-06T08:18:02.077Z,-0.16
2017-01-06T08:19:12.413Z,-0.09
2017-01-06T08:20:22.355Z,-0.09
2017-01-06T08:21:33.077Z,-0.04
2017-01-06T08:22:43.848Z,0.2
2017-01-06T08:23:54.610Z,0.13
2017-01-06T08:25:04.956Z,0.23
2017-01-06T08:26:15.348Z,0.13
2017-01-06T08:27:25.683Z,0.08
2017-01-06T08:28:36.423Z,0.06
2017-01-06T08:29:47.159Z,-0.04
2017-01-06T08:30:57.944Z,-0.13
2017-01-06T08:32:08.309Z,-0.1
2017-01-06T08:33:19.080Z,-0.01
2017-01-06T08:34:29.811Z,0.02
2017-01-06T08:35:40.552Z,-0.01
2017-01-06T08:36:50.899Z,0.05
2017-01-06T08:38:01.637Z,0.06
2017-01-06T08:39:12.397Z,0.17
2017-01-06T08:40:22.744Z,0.1
2017-01-06T08:41:33.478Z,-0.01
2017-01-06T08:42:43.413Z,-0.12
2017-01-06T08:43:53.809Z,-0.13
2017-01-06T08:45:04.206Z,0.09
2017-01-06T08:46:14.553Z,0.05
2017-01-06T08:47:25.289Z,0.09
2017-01-06T08:48:35.623Z,0.19
2017-01-06T08:49:45.963Z,0.32
2017-01-06T08:50:56.320Z,0.45
2017-01-06T08:52:06.681Z,0.78
2017-01-06T08:53:17.034Z,0.85
2017-01-06T08:54:27.376Z,0.86
2017-01-06T08:55:37.747Z,0.86
2017-01-06T08:56:48.084Z,0.93
2017-01-06T08:57:58.841Z,0.75
2017-01-06T08:59:08.807Z,0.75
2017-01-06T09:00:19.544Z,0.74
2017-01-06T09:01:30.298Z,0.69
2017-01-06T09:02:40.639Z,0.78
2017-01-06T09:03:50.967Z,0.76
2017-01-06T09:05:01.712Z,0.82
2017-01-06T09:06:12.078Z,0.84
2017-01-06T09:07:22.809Z,0.81
2017-01-06T09:08:33.168Z,0.61
2017-01-06T09:09:43.113Z,0.44
2017-01-06T09:10:53.109Z,0.53
2017-01-06T09:12:03.858Z,0.47
2017-01-06T09:13:14.599Z,0.17
2017-01-06T09:14:24.942Z,0.13
2017-01-06T09:15:35.282Z,-0.1
2017-01-06T09:16:45.230Z,-0.16
2017-01-06T09:17:55.176Z,-0.2
2017-01-06T09:19:05.939Z,-0.25
2017-01-06T09:20:16.270Z,-0.36
2017-01-06T09:21:26.217Z,-0.2
2017-01-06T09:22:36.164Z,-0.34
2017-01-06T09:23:46.500Z,-0.16
2017-01-06T09:24:56.442Z,0.35
2017-01-06T09:26:06.794Z,0.86
2017-01-06T09:27:17.141Z,1.22
2017-01-06T09:28:27.879Z,1.61
2017-01-06T09:29:37.830Z,1.69
2017-01-06T09:30:48.665Z,1.79
2017-01-06T09:31:58.613Z,1.87
2017-01-06T09:33:08.959Z,1.76
2017-01-06T09:34:19.307Z,1.76
2017-01-06T09:35:30.034Z,1.74
2017-01-06T09:36:40.776Z,1.66
2017-01-06T09:37:51.117Z,1.33
2017-01-06T09:39:01.488Z,1.4
2017-01-06T09:40:11.440Z,1.74
2017-01-06T09:41:21.797Z,1.78
2017-01-06T09:42:31.778Z,1.64
2017-01-06T09:43:42.514Z,1.84
2017-01-06T09:44:53.249Z,1.76
2017-01-06T09:46:03.594Z,1.82
2017-01-06T09:47:14.341Z,1.78
2017-01-06T09:48:25.089Z,1.71
2017-01-06T09:49:35.826Z,1.89
2017-01-06T09:50:46.555Z,2.02
2017-01-06T09:51:56.898Z,2.15
2017-01-06T09:53:07.648Z,2.22
2017-01-06T09:54:17.612Z,2.24
2017-01-06T09:55:27.976Z,2.22
2017-01-06T09:56:38.716Z,2.29
2017-01-06T09:57:48.671Z,2.15
2017-01-06T09:58:59.416Z,2.16
2017-01-06T10:00:08.986Z,2.13
2017-01-06T10:01:19.340Z,2.2
2017-01-06T10:02:30.088Z,2.23
2017-01-06T10:03:40.035Z,2.44
2017-01-06T10:04:50.389Z,2.63
2017-01-06T10:06:01.150Z,2.52
2017-01-06T10:07:11.125Z,2.6
2017-01-06T10:08:21.852Z,2.51
2017-01-06T10:09:32.584Z,2.13
2017-01-06T10:10:43.334Z,2.08
2017-01-06T10:11:53.681Z,2.49
2017-01-06T10:13:04.432Z,2.77
2017-01-06T10:14:14.779Z,2.77
2017-01-06T10:15:25.527Z,2.83
2017-01-06T10:16:35.870Z,2.87
2017-01-06T10:17:46.208Z,2.99
2017-01-06T10:18:56.158Z,3.16
2017-01-06T10:20:06.893Z,3.14
2017-01-06T10:21:17.635Z,3.19
2017-01-06T10:22:28.372Z,3.11
2017-01-06T10:23:38.725Z,2.95
2017-01-06T10:24:49.068Z,2.95
2017-01-06T10:25:59.427Z,2.48
2017-01-06T10:27:09.388Z,2.29
2017-01-06T10:28:19.751Z,2.45
2017-01-06T10:29:30.493Z,2.48
2017-01-06T10:30:40.840Z,2.66
2017-01-06T10:31:51.587Z,2.8
2017-01-06T10:33:02.342Z,2.85
2017-01-06T10:34:12.681Z,3.09
2017-01-06T10:35:23.036Z,3.3
2017-01-06T10:36:33.374Z,3.51
2017-01-06T10:37:44.114Z,3.67
2017-01-06T10:38:54.868Z,3.35
2017-01-06T10:40:05.212Z,3.49
2017-01-06T10:41:15.965Z,3.43
2017-01-06T10:42:25.937Z,3.23
2017-01-06T10:43:36.295Z,2.91
2017-01-06T10:44:47.074Z,2.77
2017-01-06T10:45:57.027Z,2.63
2017-01-06T10:47:07.769Z,2.38
2017-01-06T10:48:18.499Z,2.16
2017-01-06T10:49:29.276Z,1.98
2017-01-06T10:50:40.038Z,1.97
2017-01-06T10:51:50.805Z,1.82
2017-01-06T10:53:01.552Z,1.75
2017-01-06T10:54:12.314Z,1.78
2017-01-06T10:55:21.875Z,1.69
2017-01-06T10:56:32.207Z,1.69
2017-01-06T10:57:42.558Z,1.72
2017-01-06T10:58:53.291Z,1.75
2017-01-06T11:00:03.637Z,1.84
2017-01-06T11:01:14.411Z,1.79
2017-01-06T11:02:24.765Z,1.78
2017-01-06T11:03:35.534Z,1.66
2017-01-06T11:04:45.885Z,1.64
2017-01-06T11:05:56.622Z,1.69
2017-01-06T11:07:06.974Z,1.56
2017-01-06T11:08:17.721Z,1.56
2017-01-06T11:09:28.466Z,1.53
2017-01-06T11:10:38.813Z,1.46
2017-01-06T11:11:49.194Z,1.2
2017-01-06T11:12:59.546Z,1.15
2017-01-06T11:14:09.899Z,1.03
2017-01-06T11:15:20.636Z,1.02
2017-01-06T11:16:30.983Z,1.12
2017-01-06T11:17:41.720Z,1.22
2017-01-06T11:18:52.470Z,1.17
2017-01-06T11:20:02.877Z,1.18
2017-01-06T11:21:13.217Z,1.6
2017-01-06T11:22:23.955Z,1.39
2017-01-06T11:23:34.702Z,1.39
2017-01-06T11:24:45.440Z,1.87
2017-01-06T11:25:55.786Z,2.24
2017-01-06T11:27:06.553Z,2.45
2017-01-06T11:28:17.288Z,2.52
2017-01-06T11:29:28.034Z,2.69
2017-01-06T11:30:38.771Z,2.27
2017-01-06T11:31:48.738Z,2.04
2017-01-06T11:32:59.087Z,1.79
2017-01-06T11:34:09.062Z,1.68
2017-01-06T11:35:19.806Z,1.79
2017-01-06T11:36:30.556Z,2.26
2017-01-06T11:37:41.285Z,2.01
2017-01-06T11:38:52.032Z,1.9
2017-01-06T11:40:02.385Z,1.93
2017-01-06T11:41:13.124Z,2.65
2017-01-06T11:42:23.472Z,2.4
2017-01-06T11:43:34.201Z,2.42
2017-01-06T11:44:44.949Z,2.72
2017-01-06T11:45:55.685Z,2.45
2017-01-06T11:47:06.432Z,2.31
2017-01-06T11:48:17.185Z,2.2
2017-01-06T11:49:27.530Z,1.98
2017-01-06T11:50:37.876Z,1.97
2017-01-06T11:51:48.228Z,1.83
2017-01-06T11:52:58.195Z,1.74
2017-01-06T11:54:08.961Z,1.56
2017-01-06T11:55:19.353Z,1.48
2017-01-06T11:56:30.087Z,1.3
2017-01-06T11:57:40.807Z,1.32
2017-01-06T11:58:51.533Z,1.48
2017-01-06T12:00:01.866Z,1.39
2017-01-06T12:01:12.232Z,1.46
2017-01-06T12:02:22.598Z,1.47
2017-01-06T12:03:32.969Z,1.48
2017-01-06T12:04:43.733Z,1.44
2017-01-06T12:05:54.069Z,1.29
2017-01-06T12:07:04.800Z,1.21
2017-01-06T12:08:15.541Z,1.12
2017-01-06T12:09:26.314Z,1.02
2017-01-06T12:10:37.045Z,0.94
2017-01-06T12:11:47.376Z,1.02
2017-01-06T12:12:57.707Z,0.94
2017-01-06T12:14:08.043Z,0.71
2017-01-06T12:15:18.776Z,0.72
2017-01-06T12:16:29.519Z,0.58
2017-01-06T12:17:40.258Z,0.63
2017-01-06T12:18:50.616Z,0.63
2017-01-06T12:20:01.363Z,0.61
2017-01-06T12:21:12.102Z,0.58
2017-01-06T12:22:22.445Z,0.58
2017-01-06T12:23:33.176Z,0.56
2017-01-06T12:24:43.526Z,1.11
2017-01-06T12:25:54.279Z,1.22
2017-01-06T12:27:04.618Z,1.18
2017-01-06T12:28:15.355Z,2.55
2017-01-06T12:29:24.920Z,3.89
2017-01-06T12:30:35.656Z,4.66
2017-01-06T12:31:46.005Z,4.98
2017-01-06T12:32:56.349Z,4.83
2017-01-06T12:34:07.083Z,4.83
2017-01-06T12:35:17.828Z,3.97
2017-01-06T12:36:28.165Z,3.26
2017-01-06T12:37:38.886Z,2.72
2017-01-06T12:38:49.699Z,2.48
2017-01-06T12:40:00.439Z,2.22
2017-01-06T12:41:11.200Z,2.16
2017-01-06T12:42:21.945Z,2.2
2017-01-06T12:43:32.295Z,1.97
2017-01-06T12:44:42.653Z,1.93
2017-01-06T12:45:52.994Z,1.89
2017-01-06T12:47:03.746Z,1.83
2017-01-06T12:48:14.101Z,1.75
2017-01-06T12:49:24.845Z,1.76
2017-01-06T12:50:35.211Z,1.68
2017-01-06T12:51:45.562Z,1.6
2017-01-06T12:52:56.340Z,1.47
2017-01-06T12:54:06.712Z,1.48
2017-01-06T12:55:17.448Z,1.5
2017-01-06T12:56:27.437Z,1.42
2017-01-06T12:57:37.781Z,1.4
2017-01-06T12:58:48.138Z,1.74
2017-01-06T12:59:58.871Z,2.34
2017-01-06T13:01:09.223Z,2.73
2017-01-06T13:02:19.568Z,2.9
2017-01-06T13:03:29.115Z,2.63
2017-01-06T13:04:39.452Z,2.29
2017-01-06T13:05:49.793Z,1.93
2017-01-06T13:07:00.146Z,1.66
2017-01-06T13:08:10.482Z,1.58
2017-01-06T13:09:21.214Z,1.4
2017-01-06T13:10:31.966Z,1.33
2017-01-06T13:11:42.727Z,1.21
2017-01-06T13:12:53.077Z,1.2
2017-01-06T13:14:03.430Z,1.03
2017-01-06T13:15:14.162Z,0.97
2017-01-06T13:16:24.501Z,0.84
2017-01-06T13:17:34.845Z,0.81
2017-01-06T13:18:45.573Z,0.71
2017-01-06T13:19:55.538Z,0.74
2017-01-06T13:21:06.285Z,0.61
2017-01-06T13:22:16.646Z,0.6
2017-01-06T13:23:27.399Z,0.44
2017-01-06T13:24:37.761Z,0.37
2017-01-06T13:25:48.111Z,0.34
2017-01-06T13:26:58.855Z,0.45
2017-01-06T13:28:08.439Z,0.5
2017-01-06T13:29:19.192Z,0.52
2017-01-06T13:30:29.556Z,0.6
2017-01-06T13:31:39.515Z,0.63
2017-01-06T13:32:50.243Z,0.61
2017-01-06T13:34:00.589Z,0.5
2017-01-06T13:35:10.528Z,0.42
2017-01-06T13:36:20.872Z,0.41
2017-01-06T13:37:31.604Z,0.28
2017-01-06T13:38:42.352Z,0.21
2017-01-06T13:39:52.711Z,0.16
2017-01-06T13:41:03.060Z,0.1
2017-01-06T13:42:13.419Z,0.02
2017-01-06T13:43:24.155Z,-0.04
2017-01-06T13:44:34.503Z,-0.07
2017-01-06T13:45:44.846Z,-0.16
2017-01-06T13:46:55.182Z,-0.23
2017-01-06T13:48:05.927Z,-0.05
2017-01-06T13:49:16.349Z,-0.07
2017-01-06T13:50:27.096Z,0.01
2017-01-06T13:51:37.831Z,0.03
2017-01-06T13:52:48.564Z,0.05
2017-01-06T13:53:58.919Z,0.05
2017-01-06T13:55:09.729Z,-0.04
2017-01-06T13:56:20.491Z,0.03
2017-01-06T13:57:30.865Z,0.01
2017-01-06T13:58:41.212Z,0.02
2017-01-06T13:59:51.154Z,0.01
2017-01-06T14:01:01.884Z,-0.01
2017-01-06T14:02:12.627Z,-0.05
2017-01-06T14:03:23.370Z,-0.15
2017-01-06T14:04:33.306Z,-0.02
2017-01-06T14:05:43.252Z,-0.12
2017-01-06T14:06:53.598Z,-0.18
2017-01-06T14:08:03.537Z,-0.18
2017-01-06T14:09:14.277Z,-0.25
2017-01-06T14:10:24.648Z,-0.25
2017-01-06T14:11:35.001Z,-0.28
2017-01-06T14:12:45.354Z,-0.23
2017-01-06T14:13:55.703Z,-0.22
2017-01-06T14:15:06.060Z,-0.28
2017-01-06T14:16:16.416Z,-0.4
2017-01-06T14:17:26.766Z,-0.45
2017-01-06T14:18:36.725Z,-0.61
2017-01-06T14:19:47.101Z,-0.76
2017-01-06T14:20:57.849Z,-0.85
2017-01-06T14:22:08.585Z,-0.92
2017-01-06T14:23:19.346Z,-0.99
2017-01-06T14:24:29.294Z,-1.09
2017-01-06T14:25:40.024Z,-1.11
2017-01-06T14:26:49.577Z,-1.27
2017-01-06T14:28:00.309Z,-1.22
2017-01-06T14:29:11.048Z,-1.27
2017-01-06T14:30:21.023Z,-1.3
2017-01-06T14:31:31.349Z,-1.17
2017-01-06T14:32:42.091Z,-1.07
2017-01-06T14:33:52.039Z,-1.04
2017-01-06T14:35:02.785Z,-0.96
2017-01-06T14:36:13.122Z,-1.04
2017-01-06T14:37:23.857Z,-1.1
2017-01-06T14:38:34.181Z,-1.14
2017-01-06T14:39:44.132Z,-1.06
2017-01-06T14:40:54.470Z,-1.07
2017-01-06T14:42:04.820Z,-1.14
2017-01-06T14:43:14.781Z,-1.21
2017-01-06T14:44:25.120Z,-1.25
2017-01-06T14:45:35.481Z,-1.25
2017-01-06T14:46:46.254Z,-1.32
2017-01-06T14:47:56.613Z,-1.32
2017-01-06T14:49:07.001Z,-1.45
2017-01-06T14:50:17.730Z,-1.42
2017-01-06T14:51:28.461Z,-1.42
2017-01-06T14:52:38.420Z,-1.52
2017-01-06T14:53:49.159Z,-1.42
2017-01-06T14:54:59.895Z,-1.42
2017-01-06T14:56:10.277Z,-1.56
2017-01-06T14:57:20.996Z,-1.49
2017-01-06T14:58:30.944Z,-1.48
2017-01-06T14:59:41.292Z,-1.48
2017-01-06T15:00:50.849Z,-1.49
2017-01-06T15:02:01.177Z,-1.49
2017-01-06T15:03:11.151Z,-1.52
2017-01-06T15:04:21.894Z,-1.46
2017-01-06T15:05:32.630Z,-1.49
2017-01-06T15:06:43.387Z,-1.37
2017-01-06T15:07:53.740Z,-1.49
2017-01-06T15:09:04.479Z,-1.49
2017-01-06T15:10:14.839Z,-1.55
2017-01-06T15:11:25.599Z,-1.45
2017-01-06T15:12:36.335Z,-1.42
2017-01-06T15:13:47.084Z,-1.49
2017-01-06T15:14:57.830Z,-1.46
2017-01-06T15:16:07.376Z,-1.5
2017-01-06T15:17:18.122Z,-1.49
2017-01-06T15:18:28.483Z,-1.43
2017-01-06T15:19:38.815Z,-1.42
2017-01-06T15:20:49.173Z,-1.49
2017-01-06T15:21:59.130Z,-1.48
2017-01-06T15:23:09.869Z,-1.53
2017-01-06T15:24:19.437Z,-1.52
2017-01-06T15:25:30.168Z,-1.48
2017-01-06T15:26:40.914Z,-1.35
2017-01-06T15:27:51.261Z,-1.42
2017-01-06T15:29:02.008Z,-1.52
2017-01-06T15:30:12.354Z,-1.5
2017-01-06T15:31:23.091Z,-1.5
2017-01-06T15:32:33.438Z,-1.56
2017-01-06T15:33:44.168Z,-1.61
2017-01-06T15:34:54.511Z,-1.56
2017-01-06T15:36:04.888Z,-1.73
2017-01-06T15:37:15.627Z,-1.7
2017-01-06T15:38:26.382Z,-1.7
2017-01-06T15:39:36.757Z,-1.73
2017-01-06T15:40:47.119Z,-1.74
2017-01-06T15:41:57.877Z,-1.82
2017-01-06T15:43:08.656Z,-1.84
2017-01-06T15:44:19.417Z,-1.84
2017-01-06T15:45:29.781Z,-1.94
2017-01-06T15:46:40.189Z,-1.91
2017-01-06T15:47:50.947Z,-1.96
2017-01-06T15:49:01.701Z,-1.99
2017-01-06T15:50:12.045Z,-2.07
2017-01-06T15:51:22.395Z,-2.09